createdAt,value
2019-02-23T00:03:26.113Z,7.70
2019-02-23T00:08:37.211Z,7.70
2019-02-23T00:13:31.514Z,7.60
2019-02-23T00:18:27.041Z,8.40
2019-02-23T00:23:20.400Z,7.40
2019-02-23T00:28:15.680Z,7.40
2019-02-23T00:33:19.746Z,7.30
2019-02-23T00:38:13.701Z,7.30
2019-02-23T00:43:08.634Z,7.20
2019-02-23T00:48:03.468Z,7.20
2019-02-23T00:53:00.186Z,7.10
2019-02-23T00:57:53.533Z,7.00
2019-02-23T01:02:48.198Z,6.90
2019-02-23T01:07:44.976Z,6.80
2019-02-23T01:12:39.755Z,6.80
2019-02-23T01:17:36.772Z,6.70
2019-02-23T01:22:33.105Z,6.60
2019-02-23T01:27:29.127Z,6.50
2019-02-23T01:32:22.483Z,6.50
2019-02-23T01:37:27.368Z,6.40
2019-02-23T01:42:23.601Z,6.30
2019-02-23T01:47:18.259Z,6.30
2019-02-23T01:52:11.719Z,6.20
2019-02-23T01:57:04.768Z,6.10
2019-02-23T02:01:59.941Z,6.10
2019-02-23T02:06:53.551Z,6.00
2019-02-23T02:11:50.611Z,5.90
2019-02-23T02:16:45.212Z,5.80
2019-02-23T02:21:38.712Z,5.80
2019-02-23T02:26:35.317Z,5.70
2019-02-23T02:32:12.256Z,5.70
2019-02-23T02:37:09.856Z,5.70
2019-02-23T02:42:11.493Z,5.70
2019-02-23T02:47:05.550Z,5.70
2019-02-23T02:52:18.753Z,5.80
2019-02-23T02:57:13.135Z,5.80
2019-02-23T03:02:06.085Z,5.80
2019-02-23T03:06:58.971Z,5.80
2019-02-23T03:11:52.921Z,5.80
2019-02-23T03:16:45.773Z,5.70
2019-02-23T03:21:38.630Z,5.70
2019-02-23T03:26:31.498Z,5.70
2019-02-23T03:31:24.416Z,5.60
2019-02-23T03:36:17.274Z,5.50
2019-02-23T03:41:10.162Z,5.50
2019-02-23T03:46:03.048Z,5.50
2019-02-23T03:50:55.902Z,5.50
2019-02-23T03:55:48.773Z,5.40
2019-02-23T04:00:41.654Z,5.40
2019-02-23T04:05:34.534Z,5.30
2019-02-23T04:10:27.372Z,5.30
2019-02-23T04:15:21.439Z,5.30
2019-02-23T04:20:14.287Z,5.30
2019-02-23T04:25:07.190Z,5.30
2019-02-23T04:30:00.318Z,5.20
2019-02-23T04:34:53.323Z,5.30
2019-02-23T04:39:46.188Z,5.30
2019-02-23T04:44:39.083Z,5.30
2019-02-23T04:49:31.921Z,5.40
2019-02-23T04:54:24.786Z,5.40
2019-02-23T04:59:17.650Z,5.40
2019-02-23T05:04:10.519Z,5.40
2019-02-23T05:09:04.053Z,5.30
2019-02-23T05:13:56.894Z,5.40
2019-02-23T05:18:49.784Z,5.40
2019-02-23T05:23:42.634Z,5.40
2019-02-23T05:28:35.533Z,5.30
2019-02-23T05:33:28.433Z,5.30
2019-02-23T05:38:21.291Z,5.30
2019-02-23T05:43:14.136Z,5.30
2019-02-23T05:48:07.025Z,5.30
2019-02-23T05:52:59.920Z,5.30
2019-02-23T05:57:53.923Z,5.30
2019-02-23T06:02:46.792Z,5.20
2019-02-23T06:07:39.649Z,5.20
2019-02-23T06:12:32.519Z,5.20
2019-02-23T06:17:27.174Z,5.10
2019-02-23T06:22:20.041Z,5.10
2019-02-23T06:27:12.893Z,5.10
2019-02-23T06:32:05.799Z,5.10
2019-02-23T06:36:58.719Z,5.10
2019-02-23T06:41:51.609Z,5.00
2019-02-23T06:46:44.450Z,5.00
2019-02-23T06:51:37.305Z,5.00
2019-02-23T06:56:30.163Z,5.00
2019-02-23T07:01:23.039Z,5.00
2019-02-23T07:06:15.895Z,5.10
2019-02-23T07:11:08.770Z,5.00
2019-02-23T07:16:01.596Z,5.00
2019-02-23T07:20:54.482Z,5.00
2019-02-23T07:25:50.348Z,5.00
2019-02-23T07:30:43.232Z,5.00
2019-02-23T07:35:36.154Z,5.20
2019-02-23T07:40:29.015Z,5.60
2019-02-23T07:45:21.911Z,5.90
2019-02-23T07:50:14.810Z,6.20
2019-02-23T07:55:07.793Z,6.20
2019-02-23T08:00:00.699Z,6.40
2019-02-23T08:04:53.599Z,6.40
2019-02-23T08:09:46.450Z,6.60
2019-02-23T08:14:39.350Z,6.90
2019-02-23T08:19:32.213Z,7.00
2019-02-23T08:24:25.206Z,7.30
2019-02-23T08:29:18.056Z,7.10
2019-02-23T08:34:10.964Z,6.90
2019-02-23T08:39:05.096Z,7.10
2019-02-23T08:43:57.967Z,7.60
2019-02-23T08:48:50.839Z,7.80
2019-02-23T08:53:43.716Z,7.80
2019-02-23T08:58:36.585Z,8.20
2019-02-23T09:03:29.439Z,8.10
2019-02-23T09:08:22.282Z,8.10
2019-02-23T09:13:15.160Z,8.00
2019-02-23T09:18:08.045Z,7.70
2019-02-23T09:23:00.925Z,8.30
2019-02-23T09:27:53.807Z,8.00
2019-02-23T09:32:46.715Z,7.80
2019-02-23T09:37:39.594Z,7.80
2019-02-23T09:42:35.505Z,8.00
2019-02-23T09:47:28.352Z,7.90
2019-02-23T09:52:21.207Z,8.10
2019-02-23T09:57:14.068Z,8.10
2019-02-23T10:02:06.938Z,8.40
2019-02-23T10:06:59.802Z,7.80
2019-02-23T10:11:52.696Z,8.20
2019-02-23T10:16:45.556Z,8.40
2019-02-23T10:21:38.417Z,8.40
2019-02-23T10:26:31.279Z,8.40
2019-02-23T10:31:24.139Z,8.30
2019-02-23T10:36:18.820Z,8.60
2019-02-23T10:41:11.677Z,8.70
2019-02-23T10:46:04.544Z,8.60
2019-02-23T10:50:57.400Z,8.90
2019-02-23T10:55:51.250Z,9.20
2019-02-23T11:00:44.157Z,9.30
2019-02-23T11:05:37.027Z,9.20
2019-02-23T11:10:29.920Z,8.90
2019-02-23T11:15:23.204Z,9.40
2019-02-23T11:20:16.697Z,9.50
2019-02-23T11:25:09.844Z,9.50
2019-02-23T11:30:03.790Z,9.50
2019-02-23T11:34:56.658Z,9.80
2019-02-23T11:39:49.518Z,9.80
2019-02-23T11:44:42.397Z,10.10
2019-02-23T11:49:35.250Z,9.80
2019-02-23T11:54:28.114Z,9.80
2019-02-23T11:59:20.990Z,9.80
2019-02-23T12:04:13.838Z,9.40
2019-02-23T12:09:07.721Z,9.60
2019-02-23T12:14:00.606Z,10.10
2019-02-23T12:18:53.469Z,10.50
2019-02-23T12:23:46.434Z,11.00
2019-02-23T12:28:41.146Z,10.70
2019-02-23T12:33:33.991Z,10.50
2019-02-23T12:38:26.863Z,10.50
2019-02-23T12:43:19.715Z,10.70
2019-02-23T12:48:12.602Z,11.00
2019-02-23T12:53:05.458Z,10.90
2019-02-23T12:57:58.920Z,11.00
2019-02-23T13:02:51.808Z,11.00
2019-02-23T13:07:44.717Z,11.00
2019-02-23T13:13:27.085Z,11.10
2019-02-23T13:19:01.944Z,11.30
2019-02-23T13:24:42.996Z,11.10
2019-02-23T13:30:35.404Z,11.20
2019-02-23T13:36:33.683Z,11.10
2019-02-23T13:42:39.084Z,11.00
2019-02-23T13:48:09.127Z,11.20
2019-02-23T13:54:38.970Z,11.30
2019-02-23T14:00:32.028Z,11.40
2019-02-23T14:06:20.106Z,11.30
2019-02-23T14:11:50.888Z,11.20
2019-02-23T14:17:43.624Z,11.00
2019-02-23T14:23:34.543Z,11.00
2019-02-23T14:29:18.124Z,11.00
2019-02-23T14:35:08.209Z,10.90
2019-02-23T14:41:23.258Z,10.90
2019-02-23T14:47:03.123Z,11.00
2019-02-23T14:53:08.578Z,11.10
2019-02-23T14:58:43.422Z,11.10
2019-02-23T15:04:51.227Z,11.00
2019-02-23T15:10:56.195Z,10.90
2019-02-23T15:17:15.334Z,10.90
2019-02-23T15:23:03.763Z,10.70
2019-02-23T15:29:16.294Z,10.70
2019-02-23T15:34:41.772Z,10.60
2019-02-23T15:40:41.236Z,10.60
2019-02-23T15:46:28.455Z,10.50
2019-02-23T15:51:21.447Z,10.40
2019-02-23T15:56:14.344Z,10.30
2019-02-23T16:01:07.219Z,10.30
2019-02-23T16:06:00.102Z,10.20
2019-02-23T16:10:53.047Z,10.10
2019-02-23T16:15:45.941Z,10.00
2019-02-23T16:20:38.774Z,9.90
2019-02-23T16:25:39.211Z,9.80
2019-02-23T16:30:26.379Z,9.80
2019-02-23T16:35:22.361Z,9.70
2019-02-23T16:40:14.053Z,9.60
2019-02-23T16:45:07.326Z,9.50
2019-02-23T16:50:00.339Z,9.50
2019-02-23T16:54:53.361Z,9.40
2019-02-23T16:59:46.247Z,9.30
2019-02-23T17:04:39.116Z,9.20
2019-02-23T17:09:31.975Z,9.20
2019-02-23T17:14:26.853Z,9.10
2019-02-23T17:19:19.749Z,9.00
2019-02-23T17:24:12.657Z,8.90
2019-02-23T17:29:05.509Z,8.90
2019-02-23T17:33:58.355Z,8.80
2019-02-23T17:38:51.213Z,8.70
2019-02-23T17:43:44.110Z,8.60
2019-02-23T17:48:37.022Z,8.60
2019-02-23T17:53:29.955Z,8.60
2019-02-23T17:58:22.808Z,8.50
2019-02-23T18:03:15.782Z,8.40
2019-02-23T18:08:08.669Z,8.40
2019-02-23T18:13:01.616Z,8.30
2019-02-23T18:17:54.521Z,8.20
2019-02-23T18:22:47.376Z,8.20
2019-02-23T18:27:40.261Z,8.10
2019-02-23T18:32:33.138Z,8.10
2019-02-23T18:37:26.012Z,8.10
2019-02-23T18:42:18.860Z,8.00
2019-02-23T18:47:11.730Z,7.90
2019-02-23T18:52:04.613Z,7.90
2019-02-23T18:56:57.525Z,7.80
2019-02-23T19:01:50.408Z,7.70
2019-02-23T19:06:43.267Z,7.60
2019-02-23T19:11:38.283Z,7.50
2019-02-23T19:16:31.206Z,7.50
2019-02-23T19:21:24.065Z,7.50
2019-02-23T19:26:16.917Z,7.40
2019-02-23T19:31:09.809Z,7.30
2019-02-23T19:36:02.673Z,7.20
2019-02-23T19:40:55.555Z,7.10
2019-02-23T19:45:50.205Z,7.10
2019-02-23T19:50:51.861Z,7.00
2019-02-23T19:55:44.714Z,6.90
2019-02-23T20:00:37.965Z,6.90
2019-02-23T20:05:31.437Z,6.90
2019-02-23T20:10:25.957Z,6.80
2019-02-23T20:15:18.960Z,6.70
2019-02-23T20:20:11.792Z,6.70
2019-02-23T20:25:05.509Z,6.60
2019-02-23T20:29:58.450Z,6.60
2019-02-23T20:34:51.547Z,6.50
2019-02-23T20:39:44.394Z,6.50
2019-02-23T20:44:38.716Z,6.40
2019-02-23T20:49:31.663Z,6.30
2019-02-23T20:54:24.538Z,6.40
2019-02-23T20:59:17.381Z,6.30
2019-02-23T21:04:10.254Z,6.30
2019-02-23T21:09:04.323Z,6.20
2019-02-23T21:13:57.317Z,6.20
2019-02-23T21:18:50.176Z,6.10
2019-02-23T21:23:43.039Z,6.10
2019-02-23T21:28:35.913Z,6.00
2019-02-23T21:33:28.885Z,6.00
2019-02-23T21:38:21.770Z,6.00
2019-02-23T21:43:15.709Z,5.90
2019-02-23T21:48:08.628Z,5.80
2019-02-23T21:53:01.512Z,5.80
2019-02-23T21:57:54.495Z,5.80
2019-02-23T22:02:47.346Z,5.70
2019-02-23T22:07:40.229Z,5.60
2019-02-23T22:12:33.136Z,5.60
2019-02-23T22:17:29.529Z,5.60
2019-02-23T22:22:43.125Z,5.60
2019-02-23T22:27:36.231Z,5.50
2019-02-23T22:32:29.094Z,5.50
2019-02-23T22:37:25.525Z,5.50
2019-02-23T22:42:18.518Z,5.40
2019-02-23T22:47:28.263Z,5.50
2019-02-23T22:53:00.673Z,5.40
2019-02-23T22:57:54.349Z,5.50
2019-02-23T23:02:47.174Z,5.40
2019-02-23T23:07:40.019Z,5.40
2019-02-23T23:12:32.854Z,5.30
2019-02-23T23:17:25.670Z,5.20
2019-02-23T23:22:18.512Z,5.20
2019-02-23T23:27:11.336Z,5.10
2019-02-23T23:32:04.171Z,5.10
2019-02-23T23:36:56.999Z,5.10
2019-02-23T23:41:49.838Z,5.10
2019-02-23T23:46:42.675Z,5.20
2019-02-23T23:51:35.499Z,5.10
2019-02-23T23:56:28.679Z,5.10
